createdAt,value
2023-05-10T00:00:49.333Z,31.3571
2023-05-10T00:01:57.432Z,31.3571
2023-05-10T00:03:05.643Z,32.0714
2023-05-10T00:04:13.621Z,28.6429
2023-05-10T00:05:21.501Z,30.7143
2023-05-10T00:06:29.470Z,27.4286
2023-05-10T00:07:37.523Z,28.0714
2023-05-10T00:08:45.712Z,29.6429
2023-05-10T00:09:53.856Z,31.9286
2023-05-10T00:11:01.860Z,32.9286
2023-05-10T00:12:09.922Z,31.1429
2023-05-10T00:13:18.048Z,30.7857
2023-05-10T00:14:26.085Z,30.0714
2023-05-10T00:15:34.048Z,29.8571
2023-05-10T00:16:42.149Z,31.3571
2023-05-10T00:17:50.178Z,31.2857
2023-05-10T00:18:58.237Z,31.2143
2023-05-10T00:20:06.198Z,30.9286
2023-05-10T00:21:14.196Z,33.0000
2023-05-10T00:22:22.253Z,32.2143
2023-05-10T00:23:30.468Z,31.3571
2023-05-10T00:24:38.474Z,30.9286
2023-05-10T00:25:46.794Z,37.2143
2023-05-10T00:26:54.944Z,33.7857
2023-05-10T00:28:02.663Z,34.7857
2023-05-10T00:29:10.702Z,35.5000
2023-05-10T00:30:19.041Z,35.3571
2023-05-10T00:31:26.863Z,34.5714
2023-05-10T00:32:34.918Z,33.7143
2023-05-10T00:33:42.922Z,35.2143
2023-05-10T00:34:50.875Z,34.7857
2023-05-10T00:35:58.896Z,34.4286
2023-05-10T00:37:06.996Z,35.0000
2023-05-10T00:38:15.227Z,35.9286
2023-05-10T00:39:23.292Z,38.0714
2023-05-10T00:40:31.341Z,37.7857
2023-05-10T00:41:39.436Z,41.5000
2023-05-10T00:42:47.589Z,40.7857
2023-05-10T00:43:55.486Z,39.2143
2023-05-10T00:45:03.529Z,43.0714
2023-05-10T00:46:11.751Z,40.5714
2023-05-10T00:47:19.644Z,41.5714
2023-05-10T00:48:27.783Z,43.5000
2023-05-10T00:49:35.620Z,46.7143
2023-05-10T00:50:43.690Z,43.0000
2023-05-10T00:51:51.721Z,45.2143
2023-05-10T00:52:59.976Z,46.1429
2023-05-10T00:54:08.023Z,44.7857
2023-05-10T00:55:16.035Z,43.7143
2023-05-10T00:56:24.086Z,46.0714
2023-05-10T00:57:32.166Z,45.5714
2023-05-10T00:58:40.319Z,44.4286
2023-05-10T00:59:48.299Z,44.7143
2023-05-10T01:00:56.426Z,45.5714
2023-05-10T01:02:04.479Z,42.6429
2023-05-10T01:03:12.582Z,39.9286
2023-05-10T01:04:20.396Z,41.5714
2023-05-10T01:05:28.478Z,40.8571
2023-05-10T01:06:36.476Z,42.8571
2023-05-10T01:07:44.708Z,38.8571
2023-05-10T01:08:52.724Z,42.3571
2023-05-10T01:10:00.800Z,38.2143
2023-05-10T01:11:08.861Z,38.8571
2023-05-10T01:12:16.979Z,37.5714
2023-05-10T01:13:25.008Z,35.9286
2023-05-10T01:14:33.144Z,37.7857
2023-05-10T01:15:41.147Z,38.3571
2023-05-10T01:16:49.106Z,40.0000
2023-05-10T01:17:57.209Z,39.9286
2023-05-10T01:19:05.089Z,38.2857
2023-05-10T01:20:13.190Z,37.6429
2023-05-10T01:21:21.259Z,38.6429
2023-05-10T01:22:29.407Z,37.1429
2023-05-10T01:23:37.456Z,39.1429
2023-05-10T01:24:45.502Z,37.7143
2023-05-10T01:25:53.573Z,37.7857
2023-05-10T01:27:01.654Z,39.2143
2023-05-10T01:28:09.672Z,38.1429
2023-05-10T01:29:17.758Z,39.4286
2023-05-10T01:30:25.909Z,37.4286
2023-05-10T01:31:33.959Z,37.0714
2023-05-10T01:32:42.136Z,40.0000
2023-05-10T01:33:49.834Z,37.5714
2023-05-10T01:34:57.887Z,37.7857
2023-05-10T01:36:05.940Z,40.6429
2023-05-10T01:37:14.134Z,36.5000
2023-05-10T01:38:22.207Z,38.4286
2023-05-10T01:39:30.236Z,37.0714
2023-05-10T01:40:38.289Z,36.0714
2023-05-10T01:41:46.384Z,36.2857
2023-05-10T01:42:54.402Z,37.2857
2023-05-10T01:44:02.435Z,37.7143
2023-05-10T01:45:10.496Z,38.0000
2023-05-10T01:46:18.673Z,37.2857
2023-05-10T01:47:26.707Z,36.6429
2023-05-10T01:48:34.540Z,37.0000
2023-05-10T01:49:42.574Z,39.8571
2023-05-10T01:50:50.665Z,40.4286
2023-05-10T01:51:58.901Z,36.5714
2023-05-10T01:53:06.942Z,38.7143
2023-05-10T01:54:14.983Z,41.0714
2023-05-10T01:55:23.039Z,41.1429
2023-05-10T01:56:31.193Z,38.9286
2023-05-10T01:57:39.176Z,39.6429
2023-05-10T01:58:47.292Z,39.5714
2023-05-10T01:59:55.258Z,39.9286
2023-05-10T02:01:03.398Z,40.4286
2023-05-10T02:02:11.379Z,40.2857
2023-05-10T02:03:19.303Z,40.8571
2023-05-10T02:04:27.317Z,42.1429
2023-05-10T02:05:35.390Z,41.7857
2023-05-10T02:06:43.658Z,41.2857
2023-05-10T02:07:51.601Z,42.5000
2023-05-10T02:08:59.727Z,42.3571
2023-05-10T02:10:07.731Z,43.0000
2023-05-10T02:11:15.802Z,40.8571
2023-05-10T02:12:23.992Z,40.2143
2023-05-10T02:13:31.983Z,41.1429
2023-05-10T02:14:39.934Z,40.2143
2023-05-10T02:15:48.000Z,41.3571
2023-05-10T02:16:56.186Z,39.9286
2023-05-10T02:18:04.256Z,39.7143
2023-05-10T02:19:12.043Z,38.8571
2023-05-10T02:20:20.327Z,39.6429
2023-05-10T02:21:28.160Z,41.0000
2023-05-10T02:22:36.364Z,38.7143
2023-05-10T02:23:44.475Z,39.0714
2023-05-10T02:24:52.464Z,41.5000
2023-05-10T02:26:00.737Z,42.1429
2023-05-10T02:27:08.559Z,41.5714
2023-05-10T02:28:16.715Z,41.2143
2023-05-10T02:29:24.724Z,40.6429
2023-05-10T02:30:32.873Z,39.7857
2023-05-10T02:31:41.331Z,40.0000
2023-05-10T02:32:48.795Z,39.8571
2023-05-10T02:33:56.795Z,39.0714
2023-05-10T02:35:04.880Z,38.5000
2023-05-10T02:36:13.052Z,41.7857
2023-05-10T02:37:21.211Z,43.5714
2023-05-10T02:38:29.258Z,40.1429
2023-05-10T02:39:37.261Z,39.4286
2023-05-10T02:40:45.269Z,39.9286
2023-05-10T02:41:53.398Z,41.0714
2023-05-10T02:43:01.416Z,39.7143
2023-05-10T02:44:09.692Z,39.0714
2023-05-10T02:45:17.609Z,43.1429
2023-05-10T02:46:25.790Z,38.7143
2023-05-10T02:47:33.624Z,40.7857
2023-05-10T02:48:41.535Z,41.0714
2023-05-10T02:49:49.583Z,40.0000
2023-05-10T02:50:57.886Z,37.7857
2023-05-10T02:52:10.735Z,39.4667
2023-05-10T02:53:19.019Z,37.9286
2023-05-10T02:54:26.833Z,38.2143
2023-05-10T02:55:34.921Z,36.7857
2023-05-10T02:56:42.984Z,41.1429
2023-05-10T02:57:50.981Z,36.6429
2023-05-10T02:58:59.102Z,36.7857
2023-05-10T03:00:07.109Z,38.2857
2023-05-10T03:01:15.053Z,38.5000
2023-05-10T03:02:23.146Z,37.2857
2023-05-10T03:03:31.120Z,38.0000
2023-05-10T03:04:39.433Z,37.3571
2023-05-10T03:05:47.353Z,36.7857
2023-05-10T03:06:55.441Z,38.6429
2023-05-10T03:08:03.599Z,35.8571
2023-05-10T03:09:11.679Z,36.9286
2023-05-10T03:10:19.726Z,36.8571
2023-05-10T03:11:27.673Z,38.5000
2023-05-10T03:12:35.695Z,35.3571
2023-05-10T03:13:43.825Z,40.4286
2023-05-10T03:14:51.990Z,41.0714
2023-05-10T03:15:59.782Z,42.0000
2023-05-10T03:17:07.803Z,40.2143
2023-05-10T03:18:15.925Z,39.2143
2023-05-10T03:19:24.185Z,41.5000
2023-05-10T03:20:32.182Z,39.7857
2023-05-10T03:21:40.262Z,38.1429
2023-05-10T03:22:48.109Z,42.7143
2023-05-10T03:23:56.345Z,39.2857
2023-05-10T03:25:04.524Z,41.0714
2023-05-10T03:26:12.393Z,44.3571
2023-05-10T03:27:20.472Z,42.5000
2023-05-10T03:28:28.654Z,43.5000
2023-05-10T03:29:36.620Z,43.6429
2023-05-10T03:30:44.506Z,41.5714
2023-05-10T03:31:52.684Z,42.0714
2023-05-10T03:33:00.785Z,42.5714
2023-05-10T03:34:08.861Z,42.5000
2023-05-10T03:35:16.987Z,42.0000
2023-05-10T03:36:24.945Z,41.1429
2023-05-10T03:37:32.971Z,40.4286
2023-05-10T03:38:41.078Z,41.0000
2023-05-10T03:39:49.210Z,39.2143
2023-05-10T03:40:57.468Z,39.5714
2023-05-10T03:42:05.290Z,40.2857
2023-05-10T03:43:13.323Z,42.4286
2023-05-10T03:44:21.412Z,44.0000
2023-05-10T03:45:29.254Z,41.5714
2023-05-10T03:46:37.388Z,40.7857
2023-05-10T03:47:45.505Z,42.5000
2023-05-10T03:48:53.578Z,43.0000
2023-05-10T03:50:01.678Z,44.8571
2023-05-10T03:51:09.835Z,43.7143
2023-05-10T03:52:17.921Z,45.7857
2023-05-10T03:53:26.161Z,44.2857
2023-05-10T03:54:34.000Z,42.2857
2023-05-10T03:55:41.978Z,47.5000
2023-05-10T03:56:50.033Z,48.7143
2023-05-10T03:57:58.128Z,45.2143
2023-05-10T03:59:06.041Z,47.2857
2023-05-10T04:00:14.046Z,48.4286
2023-05-10T04:01:22.021Z,48.8571
2023-05-10T04:02:30.213Z,51.2143
2023-05-10T04:03:38.383Z,49.7143
2023-05-10T04:04:46.383Z,47.7143
2023-05-10T04:05:54.367Z,48.6429
2023-05-10T04:07:02.436Z,49.1429
2023-05-10T04:08:10.449Z,51.0000
2023-05-10T04:09:18.567Z,48.7857
2023-05-10T04:10:26.672Z,49.0714
2023-05-10T04:11:34.799Z,49.2857
2023-05-10T04:12:42.836Z,50.3571
2023-05-10T04:13:50.766Z,47.7857
2023-05-10T04:14:58.703Z,49.6429
2023-05-10T04:16:06.843Z,48.6429
2023-05-10T04:17:14.905Z,49.8571
2023-05-10T04:18:23.025Z,49.8571
2023-05-10T04:19:31.105Z,49.6429
2023-05-10T04:20:39.140Z,50.2143
2023-05-10T04:21:47.181Z,53.7857
2023-05-10T04:22:55.237Z,50.0000
2023-05-10T04:24:03.155Z,50.8571
2023-05-10T04:25:11.521Z,48.2857
2023-05-10T04:26:19.411Z,47.1429
2023-05-10T04:27:27.517Z,48.8571
2023-05-10T04:28:35.532Z,47.2143
2023-05-10T04:29:43.511Z,45.5000
2023-05-10T04:30:51.545Z,48.6429
2023-05-10T04:31:59.567Z,50.7857
2023-05-10T04:33:07.889Z,47.0000
2023-05-10T04:34:15.806Z,47.0714
2023-05-10T04:35:23.873Z,49.0000
2023-05-10T04:36:31.933Z,45.5000
2023-05-10T04:37:39.949Z,49.1429
2023-05-10T04:38:48.077Z,45.7857
2023-05-10T04:39:56.114Z,47.5714
2023-05-10T04:41:04.164Z,46.4286
2023-05-10T04:42:12.454Z,44.8571
2023-05-10T04:43:20.247Z,45.6429
2023-05-10T04:44:28.181Z,45.9286
2023-05-10T04:45:36.225Z,44.5714
2023-05-10T04:46:44.361Z,45.7143
2023-05-10T04:47:52.713Z,43.9286
2023-05-10T04:49:00.562Z,46.0000
2023-05-10T04:50:08.697Z,45.5000
2023-05-10T04:51:16.765Z,41.2143
2023-05-10T04:52:24.763Z,40.7857
2023-05-10T04:53:32.886Z,42.2143
2023-05-10T04:54:41.051Z,42.6429
2023-05-10T04:55:49.090Z,42.2857
2023-05-10T04:56:57.058Z,43.7857
2023-05-10T04:58:05.051Z,43.2143
2023-05-10T04:59:13.019Z,43.1429
2023-05-10T05:00:21.046Z,42.5000
2023-05-10T05:01:29.263Z,42.7143
2023-05-10T05:02:37.397Z,45.0000
2023-05-10T05:03:45.679Z,47.3571
2023-05-10T05:04:53.406Z,46.7143
2023-05-10T05:06:01.578Z,48.6429
2023-05-10T05:07:09.536Z,50.4286
2023-05-10T05:08:17.672Z,49.8571
2023-05-10T05:09:25.650Z,46.6429
2023-05-10T05:10:33.825Z,53.3571
2023-05-10T05:11:41.815Z,51.2143
2023-05-10T05:12:49.841Z,50.7857
2023-05-10T05:13:57.755Z,52.0000
2023-05-10T05:15:07.849Z,51.7143
2023-05-10T05:16:18.852Z,48.4667
2023-05-10T05:17:26.988Z,49.7857
2023-05-10T05:18:34.971Z,52.4286
2023-05-10T05:19:42.983Z,52.2143
2023-05-10T05:20:51.061Z,50.0000
2023-05-10T05:21:59.105Z,50.7143
2023-05-10T05:23:07.239Z,49.1429
2023-05-10T05:24:15.238Z,53.2857
2023-05-10T05:25:23.169Z,51.5000
2023-05-10T05:26:31.469Z,52.3571
2023-05-10T05:27:39.339Z,50.8571
2023-05-10T05:28:47.362Z,50.4286
2023-05-10T05:29:55.380Z,50.5714
2023-05-10T05:31:03.540Z,54.0000
2023-05-10T05:32:11.610Z,50.8571
2023-05-10T05:33:19.768Z,45.0714
2023-05-10T05:34:27.747Z,44.9286
2023-05-10T05:35:35.814Z,45.6429
2023-05-10T05:36:43.831Z,44.5000
2023-05-10T05:37:52.088Z,43.9286
2023-05-10T05:39:00.041Z,45.0000
2023-05-10T05:40:07.998Z,45.3571
2023-05-10T05:41:16.100Z,44.7143
2023-05-10T05:42:24.014Z,44.5714
2023-05-10T05:43:32.016Z,44.8571
2023-05-10T05:44:40.127Z,40.7143
2023-05-10T05:45:48.309Z,41.6429
2023-05-10T05:46:56.631Z,41.9286
2023-05-10T05:48:04.499Z,42.4286
2023-05-10T05:49:12.449Z,39.5000
2023-05-10T05:50:20.556Z,39.5714
2023-05-10T05:51:28.595Z,38.5000
2023-05-10T05:52:36.643Z,36.2857
2023-05-10T05:53:44.740Z,35.5000
2023-05-10T05:54:52.754Z,35.7143
2023-05-10T05:56:00.854Z,34.2857
2023-05-10T05:57:08.739Z,36.9286
2023-05-10T05:58:16.825Z,38.5000
2023-05-10T05:59:24.904Z,35.8571
2023-05-10T06:00:33.149Z,39.3571
2023-05-10T06:01:41.168Z,36.4286
2023-05-10T06:02:49.326Z,39.2143
2023-05-10T06:03:57.323Z,39.8571
2023-05-10T06:05:05.339Z,38.9286
2023-05-10T06:06:13.385Z,41.0000
2023-05-10T06:07:21.422Z,40.8571
2023-05-10T06:08:29.600Z,43.3571
2023-05-10T06:09:37.524Z,42.0000
2023-05-10T06:10:45.589Z,39.2857
2023-05-10T06:11:53.530Z,41.3571
2023-05-10T06:13:01.594Z,41.2143
2023-05-10T06:14:09.683Z,44.7143
2023-05-10T06:15:18.066Z,43.5000
2023-05-10T06:16:26.050Z,46.5714
2023-05-10T06:17:34.006Z,46.2143
2023-05-10T06:18:42.002Z,52.4286
2023-05-10T06:19:50.128Z,50.8571
2023-05-10T06:20:58.204Z,54.4286
2023-05-10T06:22:06.224Z,53.2143
2023-05-10T06:23:14.459Z,54.0714
2023-05-10T06:24:22.348Z,55.6429
2023-05-10T06:25:30.358Z,56.9286
2023-05-10T06:26:38.297Z,55.5000
2023-05-10T06:27:49.766Z,52.0000
2023-05-10T06:28:59.456Z,51.8667
2023-05-10T06:30:13.071Z,51.8571
2023-05-10T06:31:20.387Z,52.1333
2023-05-10T06:32:28.518Z,52.7143
2023-05-10T06:33:36.532Z,49.0714
2023-05-10T06:34:44.687Z,49.3571
2023-05-10T06:35:52.662Z,44.7857
2023-05-10T06:37:00.852Z,45.0714
2023-05-10T06:38:08.769Z,39.5714
2023-05-10T06:39:16.699Z,42.1429
2023-05-10T06:40:24.933Z,40.6429
2023-05-10T06:41:32.785Z,41.6429
2023-05-10T06:42:41.184Z,39.0714
2023-05-10T06:43:49.084Z,41.7857
2023-05-10T06:44:57.323Z,38.4286
2023-05-10T06:46:05.242Z,39.6429
2023-05-10T06:47:13.218Z,35.4286
2023-05-10T06:48:21.308Z,34.5714
2023-05-10T06:49:29.365Z,33.5714
2023-05-10T06:50:37.407Z,33.5714
2023-05-10T06:51:45.455Z,32.0714
2023-05-10T06:52:53.530Z,32.2143
2023-05-10T06:54:01.460Z,34.1429
2023-05-10T06:55:09.513Z,34.4286
2023-05-10T06:56:17.602Z,35.1429
2023-05-10T06:57:31.794Z,35.7857
2023-05-10T06:58:38.692Z,37.3333
2023-05-10T06:59:46.752Z,35.7857
2023-05-10T07:00:54.831Z,36.5000
2023-05-10T07:02:02.899Z,35.3571
2023-05-10T07:03:11.038Z,34.2857
2023-05-10T07:04:19.223Z,35.6429
2023-05-10T07:05:27.053Z,37.6429
2023-05-10T07:06:35.169Z,39.2857
2023-05-10T07:07:43.072Z,40.7857
2023-05-10T07:08:51.091Z,41.2857
2023-05-10T07:09:59.128Z,39.7857
2023-05-10T07:11:07.327Z,42.5000
2023-05-10T07:12:16.046Z,45.5714
2023-05-10T07:13:23.651Z,42.0000
2023-05-10T07:14:31.511Z,47.6429
2023-05-10T07:15:39.580Z,46.2143
2023-05-10T07:16:47.654Z,47.4286
2023-05-10T07:17:55.711Z,43.5000
2023-05-10T07:19:03.792Z,44.0714
2023-05-10T07:20:11.954Z,44.1429
2023-05-10T07:21:20.009Z,42.6429
2023-05-10T07:22:27.809Z,43.2143
2023-05-10T07:23:35.894Z,44.7857
2023-05-10T07:24:43.901Z,43.7857
2023-05-10T07:25:52.104Z,44.8571
2023-05-10T07:27:00.261Z,48.3571
2023-05-10T07:28:08.197Z,48.0714
2023-05-10T07:29:16.411Z,57.2857
2023-05-10T07:30:24.413Z,58.4286
2023-05-10T07:31:32.429Z,62.0000
2023-05-10T07:32:40.596Z,61.7857
2023-05-10T07:33:48.538Z,60.0000
2023-05-10T07:34:56.628Z,55.3571
2023-05-10T07:36:04.626Z,57.2857
2023-05-10T07:37:12.583Z,56.7857
2023-05-10T07:38:20.633Z,53.8571
2023-05-10T07:39:28.690Z,52.4286
2023-05-10T07:40:36.927Z,46.6429
2023-05-10T07:41:45.199Z,46.4286
2023-05-10T07:42:53.038Z,45.6429
2023-05-10T07:44:01.063Z,43.7857
2023-05-10T07:45:09.247Z,43.7143
2023-05-10T07:46:17.510Z,42.9286
2023-05-10T07:47:25.330Z,46.5000
2023-05-10T07:48:33.368Z,46.2857
2023-05-10T07:49:41.367Z,44.7143
2023-05-10T07:50:49.429Z,46.0714
2023-05-10T07:51:57.342Z,50.5714
2023-05-10T07:53:05.476Z,51.8571
2023-05-10T07:54:13.469Z,53.2857
2023-05-10T07:55:21.664Z,49.4286
2023-05-10T07:56:29.778Z,53.1429
2023-05-10T07:57:37.876Z,55.2143
2023-05-10T07:58:45.891Z,53.8571
2023-05-10T07:59:53.938Z,56.3571
2023-05-10T08:01:02.075Z,56.0714
2023-05-10T08:02:10.035Z,56.9286
2023-05-10T08:03:18.208Z,56.8571
2023-05-10T08:04:26.238Z,58.7143
2023-05-10T08:05:35.807Z,60.5000
2023-05-10T08:06:47.140Z,56.6000
2023-05-10T08:07:55.056Z,57.1429
2023-05-10T08:09:03.153Z,56.0000
2023-05-10T08:10:11.283Z,57.4286
2023-05-10T08:11:19.372Z,54.3571
2023-05-10T08:12:27.406Z,49.6429
2023-05-10T08:13:35.561Z,52.8571
2023-05-10T08:14:43.602Z,53.9286
2023-05-10T08:15:51.823Z,51.2857
2023-05-10T08:16:59.807Z,49.4286
2023-05-10T08:18:07.873Z,46.9286
2023-05-10T08:19:15.813Z,47.9286
2023-05-10T08:20:23.819Z,48.4286
2023-05-10T08:21:31.848Z,48.7143
2023-05-10T08:22:39.792Z,50.1429
2023-05-10T08:23:47.900Z,51.4286
2023-05-10T08:24:56.268Z,56.9286
2023-05-10T08:26:04.131Z,57.9286
2023-05-10T08:27:12.222Z,58.5000
2023-05-10T08:28:20.261Z,64.1429
2023-05-10T08:29:30.440Z,63.2143
2023-05-10T08:30:41.449Z,63.2667
2023-05-10T08:31:49.343Z,65.2143
2023-05-10T08:32:57.352Z,69.2857
2023-05-10T08:34:05.385Z,68.2857
2023-05-10T08:35:13.337Z,66.7143
2023-05-10T08:36:21.359Z,66.7143
2023-05-10T08:37:29.400Z,68.2857
2023-05-10T08:38:37.643Z,68.5000
2023-05-10T08:39:45.736Z,69.2143
2023-05-10T08:40:53.738Z,68.0714
2023-05-10T08:42:01.784Z,69.0714
2023-05-10T08:43:09.849Z,68.7143
2023-05-10T08:44:17.881Z,67.6429
2023-05-10T08:45:26.009Z,63.8571
2023-05-10T08:46:34.033Z,67.7143
2023-05-10T08:47:42.069Z,68.7857
2023-05-10T08:48:50.173Z,72.5000
2023-05-10T08:49:58.078Z,80.0000
2023-05-10T08:51:06.095Z,76.8571
2023-05-10T08:52:14.141Z,77.5714
2023-05-10T08:53:22.378Z,78.2143
2023-05-10T08:54:30.417Z,78.2143
2023-05-10T08:55:38.451Z,75.5714
2023-05-10T08:56:49.199Z,73.0714
2023-05-10T08:57:59.475Z,74.6667
2023-05-10T08:59:07.578Z,70.7143
2023-05-10T09:00:15.703Z,69.2857
2023-05-10T09:01:23.710Z,66.4286
2023-05-10T09:02:31.774Z,64.8571
2023-05-10T09:03:39.828Z,63.3571
2023-05-10T09:04:47.902Z,61.5000
2023-05-10T09:05:55.809Z,59.2143
2023-05-10T09:07:03.829Z,57.3571
2023-05-10T09:08:12.150Z,56.0714
2023-05-10T09:09:20.170Z,53.8571
2023-05-10T09:10:28.224Z,56.0714
2023-05-10T09:11:36.194Z,53.7143
2023-05-10T09:12:44.260Z,57.1429
2023-05-10T09:13:52.301Z,58.8571
2023-05-10T09:15:00.584Z,55.6429
2023-05-10T09:16:20.342Z,56.2143
2023-05-10T09:17:21.299Z,54.3333
2023-05-10T09:18:29.322Z,52.5000
2023-05-10T09:19:37.333Z,54.5000
2023-05-10T09:20:45.623Z,48.2143
2023-05-10T09:21:53.593Z,45.2143
2023-05-10T09:23:01.634Z,46.6429
2023-05-10T09:24:09.722Z,48.1429
2023-05-10T09:25:18.121Z,43.9286
2023-05-10T09:26:25.861Z,45.3571
2023-05-10T09:27:33.887Z,46.5000
2023-05-10T09:28:41.931Z,48.3571
2023-05-10T09:29:50.058Z,44.7857
2023-05-10T09:30:58.124Z,51.1429
2023-05-10T09:32:05.956Z,55.0714
2023-05-10T09:33:14.062Z,59.9286
2023-05-10T09:34:22.130Z,56.0000
2023-05-10T09:35:30.342Z,54.4286
2023-05-10T09:36:38.492Z,55.1429
2023-05-10T09:37:46.402Z,56.0000
2023-05-10T09:38:54.493Z,50.7143
2023-05-10T09:40:02.482Z,51.5714
2023-05-10T09:41:10.694Z,47.0714
2023-05-10T09:42:18.633Z,42.5714
2023-05-10T09:43:26.672Z,43.1429
2023-05-10T09:44:34.748Z,42.5714
2023-05-10T09:45:42.799Z,43.4286
2023-05-10T09:46:50.739Z,45.7143
2023-05-10T09:47:58.790Z,40.9286
2023-05-10T09:49:06.787Z,42.5714
2023-05-10T09:50:14.983Z,37.2143
2023-05-10T09:51:23.130Z,34.8571
2023-05-10T09:52:31.086Z,37.0000
2023-05-10T09:53:39.160Z,33.9286
2023-05-10T09:54:47.212Z,37.2143
2023-05-10T09:55:55.316Z,38.6429
2023-05-10T09:57:03.318Z,41.1429
2023-05-10T09:58:11.659Z,47.2143
2023-05-10T09:59:19.423Z,47.4286
2023-05-10T10:00:27.613Z,46.6429
2023-05-10T10:01:35.500Z,43.6429
2023-05-10T10:02:43.513Z,41.2143
2023-05-10T10:03:51.522Z,41.7143
2023-05-10T10:04:59.895Z,44.8571
2023-05-10T10:06:15.901Z,47.9286
2023-05-10T10:07:20.678Z,51.4667
2023-05-10T10:08:28.736Z,56.9286
2023-05-10T10:09:36.770Z,63.2143
2023-05-10T10:10:46.017Z,66.7143
2023-05-10T10:11:53.001Z,70.2143
2023-05-10T10:13:00.963Z,71.0714
2023-05-10T10:14:09.059Z,75.3571
2023-05-10T10:15:17.105Z,73.5000
2023-05-10T10:16:25.021Z,76.8571
2023-05-10T10:17:33.097Z,76.5000
2023-05-10T10:18:41.308Z,74.6429
2023-05-10T10:19:49.310Z,76.5714
2023-05-10T10:20:57.421Z,73.3571
2023-05-10T10:22:05.539Z,68.3571
2023-05-10T10:23:15.170Z,70.1429
2023-05-10T10:24:26.395Z,67.4000
2023-05-10T10:25:34.602Z,65.0000
2023-05-10T10:26:42.515Z,60.7857
2023-05-10T10:27:50.596Z,60.3571
2023-05-10T10:28:58.501Z,61.3571
2023-05-10T10:30:06.546Z,54.2143
2023-05-10T10:31:14.713Z,54.7143
2023-05-10T10:32:22.800Z,59.3571
2023-05-10T10:33:30.996Z,61.9286
2023-05-10T10:34:38.905Z,66.0714
2023-05-10T10:35:46.982Z,69.8571
2023-05-10T10:36:55.006Z,70.5000
2023-05-10T10:38:03.141Z,74.2857
2023-05-10T10:39:11.146Z,82.2143
2023-05-10T10:40:19.275Z,88.5000
2023-05-10T10:41:27.222Z,91.2857
2023-05-10T10:42:35.351Z,93.7857
2023-05-10T10:43:43.244Z,97.6429
2023-05-10T10:44:51.278Z,100.1429
2023-05-10T10:45:59.362Z,104.7143
2023-05-10T10:47:07.728Z,111.6429
2023-05-10T10:48:15.636Z,111.2857
2023-05-10T10:49:23.628Z,111.7857
2023-05-10T10:50:31.809Z,110.0000
2023-05-10T10:51:39.915Z,109.6429
2023-05-10T10:52:48.002Z,110.6429
2023-05-10T10:53:55.851Z,110.2143
2023-05-10T10:55:04.118Z,114.3571
2023-05-10T10:56:12.031Z,117.6429
2023-05-10T10:57:20.077Z,120.9286
2023-05-10T10:58:27.954Z,123.7143
2023-05-10T10:59:36.018Z,123.9286
2023-05-10T11:00:44.114Z,122.5714
2023-05-10T11:01:52.395Z,116.4286
2023-05-10T11:03:00.378Z,110.7143
2023-05-10T11:04:08.379Z,104.9286
2023-05-10T11:05:16.575Z,98.6429
2023-05-10T11:06:24.680Z,90.5714
2023-05-10T11:07:32.605Z,84.4286
2023-05-10T11:08:40.595Z,80.3571
2023-05-10T11:09:48.661Z,72.6429
2023-05-10T11:10:56.910Z,70.0714
2023-05-10T11:12:04.844Z,67.7143
2023-05-10T11:13:12.683Z,67.0000
2023-05-10T11:14:20.733Z,65.0000
2023-05-10T11:15:28.775Z,60.1429
2023-05-10T11:16:37.011Z,54.5000
2023-05-10T11:17:45.259Z,59.1429
2023-05-10T11:18:53.091Z,54.7857
2023-05-10T11:20:01.114Z,52.6429
2023-05-10T11:21:09.341Z,53.0000
2023-05-10T11:22:17.194Z,49.8571
2023-05-10T11:23:25.367Z,50.0714
2023-05-10T11:24:33.452Z,47.5000
2023-05-10T11:25:41.644Z,50.0000
2023-05-10T11:26:49.476Z,52.3571
2023-05-10T11:27:57.448Z,50.6429
2023-05-10T11:29:05.520Z,49.2857
2023-05-10T11:30:13.647Z,48.2143
2023-05-10T11:31:21.829Z,46.6429
2023-05-10T11:32:29.819Z,42.4286
2023-05-10T11:33:37.925Z,45.4286
2023-05-10T11:34:45.849Z,53.0714
2023-05-10T11:35:53.968Z,60.0714
2023-05-10T11:37:01.984Z,66.1429
2023-05-10T11:38:10.075Z,72.5000
2023-05-10T11:39:18.054Z,67.8571
2023-05-10T11:40:26.137Z,71.0714
2023-05-10T11:41:34.394Z,67.3571
2023-05-10T11:42:42.116Z,64.5000
2023-05-10T11:43:50.136Z,63.9286
2023-05-10T11:44:58.248Z,67.7857
2023-05-10T11:46:06.633Z,67.1429
2023-05-10T11:47:15.309Z,65.7143
2023-05-10T11:48:22.589Z,59.5714
2023-05-10T11:49:30.855Z,54.0000
2023-05-10T11:50:38.631Z,54.0000
2023-05-10T11:51:46.678Z,52.0714
2023-05-10T11:52:54.801Z,48.2857
2023-05-10T11:54:02.867Z,46.0000
2023-05-10T11:55:10.859Z,49.0000
2023-05-10T11:56:18.939Z,49.6429
2023-05-10T11:57:27.020Z,42.5000
2023-05-10T11:58:34.905Z,39.2857
2023-05-10T11:59:43.345Z,35.4286
2023-05-10T12:00:51.020Z,30.7143
2023-05-10T12:01:59.177Z,30.7857
2023-05-10T12:03:07.374Z,30.7143
2023-05-10T12:04:15.445Z,24.1429
2023-05-10T12:05:23.366Z,27.3571
2023-05-10T12:06:31.468Z,33.2143
2023-05-10T12:07:39.547Z,36.5714
2023-05-10T12:08:47.520Z,50.3571
2023-05-10T12:09:55.570Z,61.5000
2023-05-10T12:11:03.646Z,74.7857
2023-05-10T12:12:11.706Z,80.3571
2023-05-10T12:13:19.649Z,84.9286
2023-05-10T12:14:27.718Z,86.0000
2023-05-10T12:15:35.755Z,77.7143
2023-05-10T12:16:43.987Z,75.7857
2023-05-10T12:17:52.075Z,70.0000
2023-05-10T12:19:00.077Z,68.0000
2023-05-10T12:20:08.088Z,59.8571
2023-05-10T12:21:16.194Z,58.7143
2023-05-10T12:22:24.224Z,54.7857
2023-05-10T12:23:32.334Z,47.8571
2023-05-10T12:24:40.384Z,47.5000
2023-05-10T12:25:48.417Z,48.2857
2023-05-10T12:26:56.425Z,44.8571
2023-05-10T12:28:04.423Z,40.7143
2023-05-10T12:29:12.428Z,37.5000
2023-05-10T12:30:20.482Z,33.0000
2023-05-10T12:31:28.836Z,33.9286
2023-05-10T12:32:36.750Z,39.9286
2023-05-10T12:33:44.798Z,45.3571
2023-05-10T12:34:52.860Z,51.3571
2023-05-10T12:36:00.894Z,65.7857
2023-05-10T12:37:08.905Z,73.7857
2023-05-10T12:38:17.077Z,82.4286
2023-05-10T12:39:25.046Z,89.3571
2023-05-10T12:40:33.221Z,97.1429
2023-05-10T12:41:43.518Z,103.5000
2023-05-10T12:42:53.999Z,107.4667
2023-05-10T12:44:02.025Z,111.5000
2023-05-10T12:45:10.069Z,106.7143
2023-05-10T12:46:18.315Z,100.8571
2023-05-10T12:47:26.442Z,96.3571
2023-05-10T12:48:34.383Z,91.4286
2023-05-10T12:49:42.475Z,90.0000
2023-05-10T12:50:50.453Z,86.6429
2023-05-10T12:51:58.517Z,83.5714
2023-05-10T12:53:06.630Z,80.0714
2023-05-10T12:54:14.818Z,81.6429
2023-05-10T12:55:22.704Z,80.9286
2023-05-10T12:56:30.854Z,82.4286
2023-05-10T12:57:38.677Z,81.5714
2023-05-10T12:58:46.760Z,86.7143
2023-05-10T12:59:54.804Z,87.3571
2023-05-10T13:01:03.172Z,89.5000
2023-05-10T13:02:11.060Z,94.3571
2023-05-10T13:03:19.285Z,93.1429
2023-05-10T13:04:27.201Z,94.7857
2023-05-10T13:05:35.285Z,94.5000
2023-05-10T13:06:43.348Z,91.3571
2023-05-10T13:07:51.472Z,92.7857
2023-05-10T13:08:59.509Z,94.6429
2023-05-10T13:10:07.586Z,91.7857
2023-05-10T13:11:15.694Z,84.5000
2023-05-10T13:12:23.537Z,78.2857
2023-05-10T13:13:31.606Z,71.2857
2023-05-10T13:14:39.623Z,63.6429
2023-05-10T13:15:47.788Z,59.8571
2023-05-10T13:16:55.973Z,58.0000
2023-05-10T13:18:04.120Z,56.5714
2023-05-10T13:19:12.256Z,60.8571
2023-05-10T13:20:20.014Z,59.0000
2023-05-10T13:21:28.079Z,56.7143
2023-05-10T13:22:40.197Z,57.5000
2023-05-10T13:23:49.098Z,61.5333
2023-05-10T13:24:57.134Z,72.8571
2023-05-10T13:26:05.088Z,93.5000
2023-05-10T13:27:13.108Z,110.7143
2023-05-10T13:28:21.176Z,124.0000
2023-05-10T13:29:29.421Z,141.9286
2023-05-10T13:30:37.418Z,147.8571
2023-05-10T13:31:45.540Z,158.2143
2023-05-10T13:32:53.575Z,169.5000
2023-05-10T13:34:01.716Z,174.6429
2023-05-10T13:35:09.548Z,177.5000
2023-05-10T13:36:17.823Z,183.9286
2023-05-10T13:37:25.808Z,182.2857
2023-05-10T13:38:33.832Z,175.5000
2023-05-10T13:39:42.057Z,164.3571
2023-05-10T13:40:49.808Z,156.3571
2023-05-10T13:41:57.852Z,152.6429
2023-05-10T13:43:05.954Z,152.1429